createdAt,value
2023-05-25T00:01:02.076Z,76.18
2023-05-25T00:03:27.650Z,75.83
2023-05-25T00:06:12.161Z,76.19
2023-05-25T00:08:45.856Z,75.75
2023-05-25T00:11:29.972Z,76.14
2023-05-25T00:14:02.753Z,75.85
2023-05-25T00:16:36.871Z,75.85
2023-05-25T00:19:20.604Z,76.21
2023-05-25T00:21:53.278Z,75.87
2023-05-25T00:24:37.215Z,76.27
2023-05-25T00:27:10.991Z,76.19
2023-05-25T00:29:54.693Z,76.63
2023-05-25T00:32:27.408Z,76.28
2023-05-25T00:35:11.548Z,76.56
2023-05-25T00:37:45.116Z,76.19
2023-05-25T00:40:27.194Z,76.40
2023-05-25T00:43:01.376Z,76.15
2023-05-25T00:45:45.816Z,76.38
2023-05-25T00:48:28.455Z,76.36
2023-05-25T00:51:02.436Z,76.18
2023-05-25T00:53:48.995Z,76.67
2023-05-25T00:56:35.702Z,76.85
2023-05-25T00:59:11.281Z,76.82
2023-05-25T01:01:56.556Z,77.52
2023-05-25T01:04:32.275Z,77.57
2023-05-25T01:07:17.852Z,78.00
2023-05-25T01:10:03.370Z,78.41
2023-05-25T01:12:42.285Z,78.42
2023-05-25T01:15:27.192Z,78.61
2023-05-25T01:18:20.454Z,78.62
2023-05-25T01:20:59.224Z,78.62
2023-05-25T01:23:47.001Z,78.98
2023-05-25T01:26:21.826Z,78.84
2023-05-25T01:29:07.513Z,79.30
2023-05-25T01:31:42.030Z,79.17
2023-05-25T01:34:26.057Z,79.49
2023-05-25T01:36:57.986Z,79.25
2023-05-25T01:39:30.198Z,78.75
2023-05-25T01:42:14.469Z,78.83
2023-05-25T01:44:59.060Z,78.70
2023-05-25T01:48:04.656Z,78.74
2023-05-25T01:50:44.188Z,78.38
2023-05-25T01:53:39.808Z,78.23
2023-05-25T01:56:15.040Z,77.60
2023-05-25T01:59:02.574Z,77.67
2023-05-25T02:01:38.199Z,78.22
2023-05-25T02:04:22.351Z,78.05
2023-05-25T02:06:55.015Z,77.57
2023-05-25T02:09:39.345Z,77.65
2023-05-25T02:12:21.684Z,77.41
2023-05-25T02:15:05.947Z,77.25
2023-05-25T02:17:38.665Z,76.96
2023-05-25T02:20:23.854Z,76.96
2023-05-25T02:22:56.500Z,76.45
2023-05-25T02:25:40.434Z,76.11
2023-05-25T02:28:23.061Z,75.78
2023-05-25T02:30:55.883Z,75.00
2023-05-25T02:33:38.296Z,75.12
2023-05-25T02:36:20.448Z,74.23
2023-05-25T02:38:53.387Z,73.31
2023-05-25T02:41:38.967Z,72.94
2023-05-25T02:44:24.029Z,72.19
2023-05-25T02:46:57.028Z,71.01
2023-05-25T02:49:40.480Z,70.85
2023-05-25T02:52:14.142Z,69.54
2023-05-25T02:54:58.846Z,69.29
2023-05-25T02:57:34.158Z,68.31
2023-05-25T03:00:17.706Z,68.50
2023-05-25T03:02:50.586Z,67.55
2023-05-25T03:05:34.817Z,67.47
2023-05-25T03:08:20.048Z,67.25
2023-05-25T03:11:05.382Z,66.65
2023-05-25T03:13:38.470Z,66.00
2023-05-25T03:16:23.538Z,66.03
2023-05-25T03:18:56.366Z,65.06
2023-05-25T03:21:40.240Z,65.28
2023-05-25T03:24:24.543Z,64.83
2023-05-25T03:26:59.014Z,63.84
2023-05-25T03:29:41.433Z,64.11
2023-05-25T03:32:14.453Z,63.33
2023-05-25T03:34:58.887Z,63.66
2023-05-25T03:37:32.165Z,62.83
2023-05-25T03:40:17.759Z,63.10
2023-05-25T03:42:50.731Z,61.72
2023-05-25T03:45:32.823Z,61.83
2023-05-25T03:48:05.467Z,61.34
2023-05-25T03:50:48.002Z,61.67
2023-05-25T03:53:21.255Z,60.89
2023-05-25T03:56:03.584Z,60.82
2023-05-25T03:58:36.676Z,60.38
2023-05-25T04:01:21.075Z,60.79
2023-05-25T04:03:54.027Z,60.01
2023-05-25T04:06:38.164Z,60.53
2023-05-25T04:09:12.053Z,60.17
2023-05-25T04:11:55.823Z,60.38
2023-05-25T04:14:29.134Z,60.10
2023-05-25T04:17:14.310Z,60.17
2023-05-25T04:19:47.293Z,59.95
2023-05-25T04:22:31.423Z,60.98
2023-05-25T04:25:04.318Z,60.84
2023-05-25T04:27:49.200Z,60.92
2023-05-25T04:30:23.588Z,61.04
2023-05-25T04:33:24.882Z,61.46
2023-05-25T04:36:15.984Z,61.45
2023-05-25T04:38:51.666Z,60.97
2023-05-25T04:41:35.379Z,61.09
2023-05-25T04:44:10.455Z,62.12
2023-05-25T04:46:44.860Z,60.76
2023-05-25T04:49:29.596Z,60.35
2023-05-25T04:52:02.436Z,59.99
2023-05-25T04:54:47.260Z,60.25
2023-05-25T04:57:20.954Z,59.73
2023-05-25T05:00:06.276Z,59.76
2023-05-25T05:02:39.299Z,58.53
2023-05-25T05:05:12.371Z,58.67
2023-05-25T05:07:56.391Z,58.13
2023-05-25T05:10:29.759Z,57.40
2023-05-25T05:13:16.048Z,57.67
2023-05-25T05:15:49.518Z,57.16
2023-05-25T05:18:33.909Z,57.93
2023-05-25T05:21:07.459Z,57.79
2023-05-25T05:23:52.623Z,57.72
2023-05-25T05:26:25.556Z,56.82
2023-05-25T05:29:08.014Z,57.72
2023-05-25T05:31:42.488Z,57.47
2023-05-25T05:34:27.014Z,57.99
2023-05-25T05:37:01.214Z,57.69
2023-05-25T05:39:46.049Z,58.09
2023-05-25T05:42:19.629Z,57.29
2023-05-25T05:45:01.748Z,57.24
2023-05-25T05:47:36.161Z,56.46
2023-05-25T05:50:21.560Z,56.51
2023-05-25T05:52:54.494Z,55.40
2023-05-25T05:55:38.768Z,55.21
2023-05-25T05:58:12.186Z,54.22
2023-05-25T06:00:56.776Z,54.27
2023-05-25T06:03:41.366Z,54.46
2023-05-25T06:06:25.380Z,54.47
2023-05-25T06:09:07.510Z,54.10
2023-05-25T06:11:40.339Z,53.66
2023-05-25T06:14:25.182Z,53.90
2023-05-25T06:16:59.206Z,53.64
2023-05-25T06:19:44.241Z,53.75
2023-05-25T06:22:17.201Z,52.60
2023-05-25T06:25:04.397Z,53.33
2023-05-25T06:27:38.652Z,52.91
2023-05-25T06:30:24.012Z,53.57
2023-05-25T06:33:06.488Z,53.44
2023-05-25T06:35:39.269Z,52.61
2023-05-25T06:38:24.084Z,53.44
2023-05-25T06:41:07.551Z,52.43
2023-05-25T06:43:40.302Z,52.46
2023-05-25T06:46:33.075Z,53.23
2023-05-25T06:49:05.905Z,52.39
2023-05-25T06:51:49.384Z,53.41
2023-05-25T06:54:22.173Z,53.22
2023-05-25T06:57:06.681Z,53.77
2023-05-25T06:59:48.998Z,53.20
2023-05-25T07:02:21.799Z,52.61
2023-05-25T07:05:06.121Z,52.99
2023-05-25T07:07:49.624Z,52.82
2023-05-25T07:10:33.313Z,52.43
2023-05-25T07:13:05.790Z,51.77
2023-05-25T07:15:49.892Z,52.82
2023-05-25T07:18:22.672Z,52.89
2023-05-25T07:20:55.564Z,53.63
2023-05-25T07:23:28.363Z,54.65
2023-05-25T07:26:11.954Z,55.51
2023-05-25T07:28:44.780Z,55.33
2023-05-25T07:31:17.916Z,56.09
2023-05-25T07:33:50.926Z,56.05
2023-05-25T07:36:34.734Z,56.60
2023-05-25T07:39:07.602Z,57.49
2023-05-25T07:41:49.695Z,57.26
2023-05-25T07:44:22.412Z,57.34
2023-05-25T07:47:07.380Z,57.08
2023-05-25T07:49:40.062Z,57.31
2023-05-25T07:52:23.608Z,57.47
2023-05-25T07:54:56.405Z,56.71
2023-05-25T07:57:40.664Z,56.62
2023-05-25T08:00:25.841Z,55.72
2023-05-25T08:02:58.730Z,55.88
2023-05-25T08:05:44.564Z,56.47
2023-05-25T08:08:28.465Z,56.28
2023-05-25T08:11:01.586Z,56.51
2023-05-25T08:13:45.836Z,56.17
2023-05-25T08:16:28.514Z,57.21
2023-05-25T08:19:01.991Z,57.05
2023-05-25T08:21:44.393Z,56.82
2023-05-25T08:24:26.748Z,58.13
2023-05-25T08:26:59.820Z,58.54
2023-05-25T08:29:43.723Z,58.51
2023-05-25T08:32:16.852Z,58.89
2023-05-25T08:35:01.941Z,59.04
2023-05-25T08:37:35.848Z,60.28
2023-05-25T08:40:19.977Z,59.57
2023-05-25T08:42:52.638Z,60.39
2023-05-25T08:45:37.453Z,60.24
2023-05-25T08:48:12.534Z,60.59
2023-05-25T08:51:03.454Z,60.56
2023-05-25T08:53:41.318Z,61.17
2023-05-25T08:56:28.334Z,60.70
2023-05-25T08:59:24.971Z,61.01
2023-05-25T09:02:31.694Z,61.14
2023-05-25T09:05:04.651Z,61.59
2023-05-25T09:07:47.572Z,59.81
2023-05-25T09:10:21.054Z,61.96
2023-05-25T09:13:19.604Z,61.25
2023-05-25T09:15:53.149Z,61.96
2023-05-25T09:18:26.248Z,63.67
2023-05-25T09:21:11.645Z,63.59
2023-05-25T09:23:44.942Z,65.32
2023-05-25T09:26:27.977Z,66.77
2023-05-25T09:29:00.630Z,68.55
2023-05-25T09:31:45.375Z,67.44
2023-05-25T09:34:31.875Z,70.39
2023-05-25T09:37:34.537Z,71.82
2023-05-25T09:40:13.481Z,73.92
2023-05-25T09:42:58.038Z,72.86
2023-05-25T09:45:31.213Z,75.32
2023-05-25T09:48:15.092Z,78.08
2023-05-25T09:50:49.918Z,78.16
2023-05-25T09:53:34.776Z,79.86
2023-05-25T09:56:18.633Z,78.65
2023-05-25T09:59:01.463Z,78.10
2023-05-25T10:01:35.901Z,78.32
2023-05-25T10:04:21.442Z,78.10
2023-05-25T10:06:56.848Z,79.54
2023-05-25T10:09:44.301Z,80.45
2023-05-25T10:12:27.612Z,81.95
2023-05-25T10:15:15.259Z,82.15
2023-05-25T10:18:26.218Z,82.79
2023-05-25T10:21:05.622Z,83.05
2023-05-25T10:23:53.002Z,82.10
2023-05-25T10:26:28.608Z,81.24
2023-05-25T10:29:11.889Z,80.01
2023-05-25T10:31:44.999Z,79.66
2023-05-25T10:34:28.253Z,80.09
2023-05-25T10:37:13.617Z,79.67
2023-05-25T10:39:59.181Z,79.30
2023-05-25T10:42:35.590Z,78.01
2023-05-25T10:45:20.846Z,77.39
2023-05-25T10:48:05.031Z,80.15
2023-05-25T10:50:38.314Z,78.65
2023-05-25T10:53:22.748Z,79.22
2023-05-25T10:56:01.365Z,78.57
2023-05-25T10:58:47.363Z,78.51
2023-05-25T11:01:34.832Z,77.64
2023-05-25T11:04:17.726Z,76.84
2023-05-25T11:06:54.677Z,75.08
2023-05-25T11:09:31.803Z,72.18
2023-05-25T11:12:22.926Z,70.96
2023-05-25T11:15:12.813Z,68.54
2023-05-25T11:17:51.543Z,65.25
2023-05-25T11:20:37.742Z,65.93
2023-05-25T11:23:11.266Z,62.86
2023-05-25T11:25:56.588Z,65.24
2023-05-25T11:28:43.262Z,63.55
2023-05-25T11:31:17.889Z,63.14
2023-05-25T11:34:04.931Z,64.40
2023-05-25T11:36:38.292Z,63.34
2023-05-25T11:39:23.846Z,64.24
2023-05-25T11:41:59.625Z,64.72
2023-05-25T11:44:44.807Z,65.43
2023-05-25T11:47:31.834Z,64.17
2023-05-25T11:50:03.486Z,64.08
2023-05-25T11:52:35.778Z,64.12
2023-05-25T11:55:19.619Z,63.50
2023-05-25T11:57:59.548Z,62.76
2023-05-25T12:00:43.573Z,64.23
2023-05-25T12:03:32.964Z,62.48
2023-05-25T12:06:30.769Z,63.04
2023-05-25T12:09:14.592Z,62.31
2023-05-25T12:11:56.753Z,62.58
2023-05-25T12:14:29.638Z,60.49
2023-05-25T12:17:12.629Z,60.23
2023-05-25T12:19:56.942Z,60.31
2023-05-25T12:22:30.104Z,61.46
2023-05-25T12:25:16.337Z,62.14
2023-05-25T12:28:14.817Z,63.46
2023-05-25T12:30:47.873Z,61.82
2023-05-25T12:33:32.024Z,63.36
2023-05-25T12:36:04.696Z,63.36
2023-05-25T12:39:02.122Z,62.94
2023-05-25T12:41:51.151Z,62.77
2023-05-25T12:44:37.200Z,62.28
2023-05-25T12:47:22.648Z,60.39
2023-05-25T12:50:16.609Z,61.02
2023-05-25T12:53:04.861Z,60.69
2023-05-25T12:55:38.491Z,55.03
2023-05-25T12:58:29.765Z,51.61
2023-05-25T13:01:02.653Z,46.41
2023-05-25T13:03:44.942Z,46.72
2023-05-25T13:06:28.548Z,47.39
2023-05-25T13:09:13.688Z,48.62
2023-05-25T13:11:47.075Z,49.28
2023-05-25T13:14:31.740Z,51.71
2023-05-25T13:17:14.053Z,52.58
2023-05-25T13:19:46.943Z,54.75
2023-05-25T13:22:31.361Z,56.82
2023-05-25T13:25:15.034Z,58.20
2023-05-25T13:27:50.343Z,58.24
2023-05-25T13:30:34.176Z,58.52
2023-05-25T13:33:07.059Z,63.20
2023-05-25T13:36:01.855Z,62.09
2023-05-25T13:38:43.909Z,61.85
2023-05-25T13:41:16.646Z,62.53
2023-05-25T13:43:58.692Z,63.07
2023-05-25T13:46:35.132Z,63.25
2023-05-25T13:49:19.912Z,62.15
2023-05-25T13:51:53.050Z,62.86
2023-05-25T13:54:38.165Z,62.40
2023-05-25T13:57:10.858Z,60.95
2023-05-25T14:02:26.116Z,59.96
2023-05-25T14:05:10.961Z,60.02
2023-05-25T14:07:44.750Z,60.32
2023-05-25T14:10:26.837Z,59.79
2023-05-25T14:12:59.579Z,59.06
2023-05-25T14:15:46.214Z,58.85
2023-05-25T14:18:19.608Z,59.44
2023-05-25T14:21:03.426Z,58.85
2023-05-25T14:23:36.256Z,57.68
2023-05-25T14:26:21.378Z,57.66
2023-05-25T14:29:05.902Z,56.49
2023-05-25T14:31:38.952Z,55.64
2023-05-25T14:34:21.086Z,56.91
2023-05-25T14:37:05.247Z,56.47
2023-05-25T14:39:38.093Z,55.37
2023-05-25T14:42:21.833Z,56.57
2023-05-25T14:45:07.130Z,55.88
2023-05-25T14:48:00.789Z,56.24
2023-05-25T14:50:37.072Z,58.13
2023-05-25T14:53:09.803Z,55.79
2023-05-25T14:55:51.921Z,55.83
2023-05-25T14:58:24.524Z,54.61
2023-05-25T15:01:09.756Z,55.13
2023-05-25T15:03:42.450Z,53.94
2023-05-25T15:06:24.901Z,54.24
2023-05-25T15:09:09.704Z,54.06
2023-05-25T15:11:52.178Z,53.78
2023-05-25T15:14:24.773Z,54.26
2023-05-25T15:17:09.348Z,55.12
2023-05-25T15:19:52.947Z,55.28
2023-05-25T15:22:25.718Z,54.95
2023-05-25T15:25:10.944Z,55.52
2023-05-25T15:27:43.455Z,55.58
2023-05-25T15:30:27.308Z,56.40
2023-05-25T15:33:11.661Z,56.63
2023-05-25T15:35:44.685Z,56.30
2023-05-25T15:38:29.152Z,56.59
2023-05-25T15:41:02.101Z,56.60
2023-05-25T15:43:54.715Z,57.10
2023-05-25T15:46:39.493Z,57.27
2023-05-25T15:49:12.457Z,56.98
2023-05-25T15:51:54.837Z,57.07
2023-05-25T15:54:27.821Z,55.96
2023-05-25T15:57:12.036Z,55.47
2023-05-25T15:59:44.592Z,54.18
2023-05-25T16:02:28.345Z,54.28
2023-05-25T16:05:01.056Z,53.13
2023-05-25T16:07:43.543Z,53.67
2023-05-25T16:10:27.501Z,53.43
2023-05-25T16:13:00.694Z,52.56
2023-05-25T16:15:44.579Z,53.30
2023-05-25T16:18:17.963Z,52.64
2023-05-25T16:21:02.136Z,53.62
2023-05-25T16:23:34.970Z,52.60
2023-05-25T16:26:19.253Z,54.03
2023-05-25T16:28:52.068Z,53.27
2023-05-25T16:31:35.765Z,53.99
2023-05-25T16:34:08.730Z,53.82
2023-05-25T16:36:53.023Z,54.81
2023-05-25T16:39:25.665Z,54.91
2023-05-25T16:42:08.384Z,55.63
2023-05-25T16:44:41.116Z,55.22
2023-05-25T16:47:24.760Z,56.01
2023-05-25T16:49:57.751Z,57.17
2023-05-25T16:52:30.336Z,56.03
2023-05-25T16:55:15.849Z,57.22
2023-05-25T16:57:47.796Z,57.56
2023-05-25T17:00:20.753Z,56.62
2023-05-25T17:03:04.437Z,58.26
2023-05-25T17:05:36.989Z,58.88
2023-05-25T17:08:21.018Z,59.54
2023-05-25T17:11:03.731Z,60.38
2023-05-25T17:13:36.945Z,60.75
2023-05-25T17:16:19.411Z,61.46
2023-05-25T17:18:51.962Z,61.63
2023-05-25T17:21:24.924Z,62.40
2023-05-25T17:24:07.168Z,63.09
2023-05-25T17:26:40.146Z,63.71
2023-05-25T17:29:24.332Z,64.37
2023-05-25T17:32:10.056Z,64.97
2023-05-25T17:34:43.357Z,65.46
2023-05-25T17:37:27.527Z,65.80
2023-05-25T17:40:10.033Z,66.30
2023-05-25T17:42:52.274Z,66.87
2023-05-25T17:45:34.642Z,67.45
2023-05-25T17:48:07.773Z,67.72
2023-05-25T17:50:51.933Z,68.29
2023-05-25T17:53:35.772Z,69.01
2023-05-25T17:56:08.969Z,68.97
2023-05-25T17:58:53.222Z,69.33
2023-05-25T18:01:26.420Z,69.30
2023-05-25T18:04:10.352Z,69.92
2023-05-25T18:06:43.438Z,70.08
2023-05-25T18:09:26.012Z,70.65
2023-05-25T18:11:59.006Z,70.57
2023-05-25T18:14:43.541Z,71.11
2023-05-25T18:17:16.261Z,71.09
2023-05-25T18:19:58.543Z,71.46
2023-05-25T18:22:32.939Z,71.78
2023-05-25T18:25:21.467Z,72.03
2023-05-25T18:27:54.121Z,72.43
2023-05-25T18:30:37.579Z,73.11
2023-05-25T18:33:10.934Z,73.27
2023-05-25T18:35:52.976Z,73.96
2023-05-25T18:38:37.078Z,74.12
2023-05-25T18:41:21.448Z,74.63
2023-05-25T18:43:54.411Z,74.52
2023-05-25T18:46:39.675Z,75.07
2023-05-25T18:49:12.568Z,75.22
2023-05-25T18:51:56.049Z,75.74
2023-05-25T18:54:29.696Z,75.87
2023-05-25T18:57:13.875Z,76.43
2023-05-25T18:59:46.410Z,76.45
2023-05-25T19:02:30.536Z,77.03
2023-05-25T19:05:03.596Z,77.06
2023-05-25T19:10:21.284Z,77.61
2023-05-25T19:13:03.359Z,77.93
2023-05-25T19:15:36.079Z,77.91
2023-05-25T19:18:20.071Z,77.75
2023-05-25T19:20:52.613Z,77.74
2023-05-25T19:23:35.502Z,77.85
2023-05-25T19:26:07.943Z,77.73
2023-05-25T19:28:51.692Z,77.65
2023-05-25T19:31:24.299Z,77.44
2023-05-25T19:34:26.381Z,77.49
2023-05-25T19:37:10.222Z,77.52
2023-05-25T19:39:42.961Z,77.58
2023-05-25T19:42:15.528Z,77.24
2023-05-25T19:45:00.797Z,77.09
2023-05-25T19:47:46.514Z,77.00
2023-05-25T19:50:19.287Z,76.39
2023-05-25T19:53:02.892Z,76.50
2023-05-25T19:55:37.002Z,76.20
2023-05-25T19:58:20.537Z,76.26
2023-05-25T20:00:53.116Z,75.91
2023-05-25T20:03:35.406Z,76.26
2023-05-25T20:06:08.123Z,75.83
2023-05-25T20:08:52.174Z,76.23
2023-05-25T20:11:36.239Z,76.36
2023-05-25T20:14:09.707Z,76.48
2023-05-25T20:16:53.047Z,76.79
2023-05-25T20:19:25.759Z,76.70
2023-05-25T20:22:09.513Z,77.25
2023-05-25T20:24:42.531Z,76.97
2023-05-25T20:27:24.659Z,77.33
2023-05-25T20:29:57.563Z,77.38
2023-05-25T20:32:42.791Z,77.88
2023-05-25T20:35:17.213Z,77.78
2023-05-25T20:37:59.325Z,78.04
2023-05-25T20:40:31.839Z,77.89
2023-05-25T20:43:04.340Z,78.33
2023-05-25T20:45:49.418Z,78.61
2023-05-25T20:48:21.911Z,78.48
2023-05-25T20:51:05.437Z,78.80
2023-05-25T20:53:47.513Z,79.04
2023-05-25T20:56:31.377Z,79.28
2023-05-25T20:59:15.071Z,79.21
2023-05-25T21:01:47.551Z,79.10
2023-05-25T21:04:37.647Z,79.79
2023-05-25T21:07:10.267Z,79.63
2023-05-25T21:09:55.564Z,79.95
2023-05-25T21:12:39.027Z,80.30
2023-05-25T21:15:12.120Z,80.21
2023-05-25T21:17:55.866Z,80.64
2023-05-25T21:20:38.073Z,80.83
2023-05-25T21:23:11.081Z,80.74
2023-05-25T21:25:53.249Z,81.02
2023-05-25T21:28:37.324Z,81.03
2023-05-25T21:31:10.017Z,80.95
2023-05-25T21:33:42.473Z,81.03
2023-05-25T21:36:27.528Z,81.34
2023-05-25T21:39:00.005Z,81.10
2023-05-25T21:41:43.937Z,81.38
2023-05-25T21:44:27.460Z,81.53
2023-05-25T21:47:11.536Z,81.82
2023-05-25T21:49:44.317Z,81.70
2023-05-25T21:52:29.445Z,82.33
2023-05-25T21:55:02.045Z,82.34
2023-05-25T21:57:44.438Z,82.95
2023-05-25T22:00:17.547Z,83.06
2023-05-25T22:03:02.931Z,83.61
2023-05-25T22:05:35.483Z,83.57
2023-05-25T22:08:19.815Z,84.00
2023-05-25T22:11:03.382Z,84.03
2023-05-25T22:13:35.983Z,83.74
2023-05-25T22:16:21.249Z,84.23
2023-05-25T22:19:03.336Z,84.44
2023-05-25T22:21:46.553Z,84.70
2023-05-25T22:24:19.088Z,84.48
2023-05-25T22:27:03.403Z,85.02
2023-05-25T22:29:36.018Z,84.99
2023-05-25T22:32:19.662Z,85.56
2023-05-25T22:34:52.588Z,85.47
2023-05-25T22:37:36.666Z,85.90
2023-05-25T22:40:09.808Z,85.70
2023-05-25T22:42:51.868Z,86.41
2023-05-25T22:45:24.403Z,86.29
2023-05-25T22:48:08.799Z,86.63
2023-05-25T22:50:52.377Z,86.70
2023-05-25T22:53:25.198Z,86.68
2023-05-25T22:56:09.226Z,86.95
2023-05-25T22:58:41.681Z,86.71
2023-05-25T23:01:24.145Z,86.85
2023-05-25T23:03:56.834Z,86.71
2023-05-25T23:06:42.114Z,87.19
2023-05-25T23:09:14.619Z,86.95
2023-05-25T23:11:58.154Z,87.46
2023-05-25T23:14:31.388Z,87.27
2023-05-25T23:17:13.457Z,87.58
2023-05-25T23:19:46.297Z,87.59
2023-05-25T23:22:30.175Z,87.98
2023-05-25T23:25:02.813Z,87.96
2023-05-25T23:27:44.830Z,88.17
2023-05-25T23:30:17.779Z,87.95
2023-05-25T23:33:01.487Z,88.48
2023-05-25T23:35:34.091Z,88.47
2023-05-25T23:38:18.285Z,88.81
2023-05-25T23:41:01.989Z,88.94
2023-05-25T23:43:44.002Z,88.89
2023-05-25T23:46:17.574Z,88.82
2023-05-25T23:49:01.472Z,89.27
2023-05-25T23:51:33.964Z,89.17
2023-05-25T23:54:15.977Z,89.20
2023-05-25T23:56:58.143Z,89.48
2023-05-25T23:59:30.527Z,89.27
